createdAt,value
2023-02-05T00:07:43.780Z,-0.72
2023-02-05T00:18:11.238Z,-0.65
2023-02-05T00:28:39.321Z,-0.71
2023-02-05T00:39:09.173Z,-0.71
2023-02-05T00:49:36.935Z,-0.58
2023-02-05T01:00:07.132Z,-0.51
2023-02-05T01:10:35.078Z,-0.65
2023-02-05T01:21:02.895Z,-0.78
2023-02-05T01:31:30.893Z,-0.77
2023-02-05T01:41:58.694Z,-0.83
2023-02-05T01:52:26.935Z,-0.77
2023-02-05T02:02:55.139Z,-0.74
2023-02-05T02:13:23.709Z,-0.63
2023-02-05T02:24:13.041Z,-0.61
2023-02-05T02:34:45.110Z,-0.64
2023-02-05T02:45:15.731Z,-0.76
2023-02-05T02:55:45.665Z,-0.78
2023-02-05T03:06:15.796Z,-0.66
2023-02-05T03:16:43.392Z,-0.64
2023-02-05T03:27:11.206Z,-0.63
2023-02-05T03:37:48.270Z,-0.66
2023-02-05T03:48:32.763Z,-0.89
2023-02-05T03:59:02.635Z,-0.89
2023-02-05T04:09:30.348Z,-0.89
2023-02-05T04:19:57.882Z,-1.15
2023-02-05T04:30:25.392Z,-1.62
2023-02-05T04:40:52.961Z,-1.89
2023-02-05T04:51:20.408Z,-1.94
2023-02-05T05:01:48.124Z,-2.02
2023-02-05T05:12:15.595Z,-2.08
2023-02-05T05:22:43.216Z,-2.26
2023-02-05T05:33:11.091Z,-2.49
2023-02-05T05:43:47.886Z,-2.75
2023-02-05T05:54:15.515Z,-2.83
2023-02-05T06:04:43.209Z,-2.98
2023-02-05T06:15:11.789Z,-3.28
2023-02-05T06:25:39.414Z,-3.51
2023-02-05T06:36:08.253Z,-3.82
2023-02-05T06:46:35.848Z,-3.72
2023-02-05T06:57:03.404Z,-3.85
2023-02-05T07:07:30.972Z,-3.74
2023-02-05T07:17:58.673Z,-3.48
2023-02-05T07:28:26.299Z,-3.22
2023-02-05T07:38:53.878Z,-2.80
2023-02-05T07:49:21.500Z,-2.57
2023-02-05T07:59:49.142Z,-2.33
2023-02-05T08:10:17.051Z,-1.83
2023-02-05T08:20:45.140Z,-1.56
2023-02-05T08:31:18.216Z,-1.67
2023-02-05T08:41:45.818Z,-1.39
2023-02-05T08:52:13.337Z,-1.03
2023-02-05T09:02:41.847Z,-0.72
2023-02-05T09:13:07.963Z,-0.67
2023-02-05T09:23:35.585Z,-0.70
2023-02-05T09:34:04.830Z,-0.73
2023-02-05T09:44:50.406Z,-1.28
2023-02-05T09:55:24.878Z,-1.86
2023-02-05T10:06:09.114Z,-2.12
2023-02-05T10:17:05.907Z,-2.04
2023-02-05T10:27:42.879Z,-1.96
2023-02-05T10:38:17.207Z,-1.80
2023-02-05T10:48:50.274Z,-1.85
2023-02-05T10:59:25.873Z,-1.58
2023-02-05T11:09:54.606Z,-1.72
2023-02-05T11:20:36.560Z,-1.68
2023-02-05T11:31:21.722Z,-1.96
2023-02-05T11:41:51.813Z,-2.04
2023-02-05T11:52:28.515Z,-1.70
2023-02-05T12:03:06.445Z,-1.20
2023-02-05T12:13:47.566Z,-1.10
2023-02-05T12:24:47.548Z,-1.25
2023-02-05T12:35:37.549Z,-1.35
2023-02-05T12:46:20.013Z,-1.76
2023-02-05T12:56:56.310Z,-1.93
2023-02-05T13:07:31.976Z,-1.70
2023-02-05T13:18:03.830Z,-1.48
2023-02-05T13:28:43.230Z,-1.57
2023-02-05T13:39:34.323Z,-1.72
2023-02-05T13:50:29.462Z,-1.75
2023-02-05T14:01:02.633Z,-1.67
2023-02-05T14:11:30.858Z,-1.93
2023-02-05T14:22:11.501Z,-2.10
2023-02-05T14:33:01.116Z,-2.20
2023-02-05T14:43:35.454Z,-2.33
2023-02-05T14:54:08.248Z,-2.34
2023-02-05T15:04:46.093Z,-2.07
2023-02-05T15:15:32.794Z,-2.12
2023-02-05T15:26:05.424Z,-2.14
2023-02-05T15:36:41.490Z,-1.81
2023-02-05T15:47:18.796Z,-1.42
2023-02-05T15:57:47.005Z,-1.29
2023-02-05T16:08:23.472Z,-1.32
2023-02-05T16:18:57.262Z,-1.30
2023-02-05T16:29:38.982Z,-1.02
2023-02-05T16:40:14.722Z,-0.88
2023-02-05T16:50:43.868Z,-0.79
2023-02-05T17:01:11.650Z,-0.82
2023-02-05T17:11:42.108Z,-0.70
2023-02-05T17:22:22.758Z,-0.55
2023-02-05T17:32:51.261Z,-0.54
2023-02-05T17:43:18.898Z,-0.59
2023-02-05T17:53:46.424Z,-0.52
2023-02-05T18:04:14.622Z,-0.42
2023-02-05T18:14:42.160Z,-0.55
2023-02-05T18:25:10.483Z,-0.53
2023-02-05T18:35:39.517Z,-0.63
2023-02-05T18:46:12.700Z,-0.83
2023-02-05T18:56:40.328Z,-0.91
2023-02-05T19:07:07.959Z,-1.05
2023-02-05T19:17:35.591Z,-1.15
2023-02-05T19:28:03.305Z,-1.36
2023-02-05T19:38:31.923Z,-1.47
2023-02-05T19:49:00.815Z,-1.64
2023-02-05T19:59:27.143Z,-1.71
2023-02-05T20:09:54.671Z,-1.74
2023-02-05T20:20:33.158Z,-1.64
2023-02-05T20:31:19.340Z,-1.76
2023-02-05T20:41:47.959Z,-1.69
2023-02-05T20:52:13.932Z,-1.76
2023-02-05T21:02:41.445Z,-1.89
2023-02-05T21:13:09.006Z,-1.65
2023-02-05T21:23:36.727Z,-1.35
2023-02-05T21:34:05.028Z,-0.99
2023-02-05T21:44:32.659Z,-0.95
2023-02-05T21:55:00.229Z,-1.16
2023-02-05T22:05:28.156Z,-1.33
2023-02-05T22:16:05.711Z,-1.47
2023-02-05T22:26:36.197Z,-1.64
2023-02-05T22:37:03.954Z,-1.90
2023-02-05T22:47:31.663Z,-1.87
2023-02-05T22:57:59.235Z,-1.66
2023-02-05T23:08:26.837Z,-1.53
2023-02-05T23:18:56.955Z,-1.41
2023-02-05T23:29:24.422Z,-1.46
2023-02-05T23:39:51.945Z,-1.33
2023-02-05T23:50:19.905Z,-1.35
